sensor_id;sensor_type;location;lat;lon;timestamp;P1;durP1;ratioP1;P2;durP2;ratioP2
41289;SDS011;36117;46.680;11.154;2022-10-16T00:00:37;20.77;;;9.98;;
41289;SDS011;36117;46.680;11.154;2022-10-16T00:03:05;23.65;;;12.02;;
41289;SDS011;36117;46.680;11.154;2022-10-16T00:05:32;23.42;;;11.65;;
41289;SDS011;36117;46.680;11.154;2022-10-16T00:08:02;29.50;;;12.50;;
41289;SDS011;36117;46.680;11.154;2022-10-16T00:10:28;20.60;;;12.05;;
41289;SDS011;36117;46.680;11.154;2022-10-16T00:12:54;21.77;;;10.15;;
41289;SDS011;36117;46.680;11.154;2022-10-16T00:15:20;14.40;;;8.30;;
41289;SDS011;36117;46.680;11.154;2022-10-16T00:17:45;15.88;;;7.65;;
41289;SDS011;36117;46.680;11.154;2022-10-16T00:20:11;19.48;;;8.93;;
41289;SDS011;36117;46.680;11.154;2022-10-16T00:22:37;17.00;;;9.15;;
41289;SDS011;36117;46.680;11.154;2022-10-16T00:25:03;20.60;;;9.75;;
41289;SDS011;36117;46.680;11.154;2022-10-16T00:27:29;23.27;;;10.52;;
41289;SDS011;36117;46.680;11.154;2022-10-16T00:29:55;24.23;;;12.85;;
41289;SDS011;36117;46.680;11.154;2022-10-16T00:32:21;26.42;;;11.93;;
41289;SDS011;36117;46.680;11.154;2022-10-16T00:34:46;26.33;;;11.32;;
41289;SDS011;36117;46.680;11.154;2022-10-16T00:37:12;26.95;;;12.98;;
41289;SDS011;36117;46.680;11.154;2022-10-16T00:39:38;22.50;;;12.18;;
41289;SDS011;36117;46.680;11.154;2022-10-16T00:42:04;28.00;;;13.85;;
41289;SDS011;36117;46.680;11.154;2022-10-16T00:44:49;22.15;;;10.98;;
41289;SDS011;36117;46.680;11.154;2022-10-16T00:47:29;25.20;;;12.90;;
41289;SDS011;36117;46.680;11.154;2022-10-16T00:50:13;27.42;;;11.18;;
41289;SDS011;36117;46.680;11.154;2022-10-16T00:52:43;27.70;;;11.40;;
41289;SDS011;36117;46.680;11.154;2022-10-16T00:55:12;21.25;;;10.48;;
41289;SDS011;36117;46.680;11.154;2022-10-16T00:57:38;23.45;;;11.30;;
41289;SDS011;36117;46.680;11.154;2022-10-16T01:00:05;29.00;;;11.65;;
41289;SDS011;36117;46.680;11.154;2022-10-16T01:02:33;25.08;;;12.63;;
41289;SDS011;36117;46.680;11.154;2022-10-16T01:04:59;21.15;;;11.65;;
41289;SDS011;36117;46.680;11.154;2022-10-16T01:10:36;22.13;;;11.57;;
41289;SDS011;36117;46.680;11.154;2022-10-16T01:13:06;25.90;;;12.07;;
41289;SDS011;36117;46.680;11.154;2022-10-16T01:18:06;29.63;;;12.23;;
41289;SDS011;36117;46.680;11.154;2022-10-16T01:20:47;31.27;;;12.63;;
41289;SDS011;36117;46.680;11.154;2022-10-16T01:28:39;28.35;;;14.20;;
41289;SDS011;36117;46.680;11.154;2022-10-16T01:31:06;27.85;;;13.02;;
41289;SDS011;36117;46.680;11.154;2022-10-16T01:33:40;23.20;;;13.10;;
41289;SDS011;36117;46.680;11.154;2022-10-16T01:36:13;28.30;;;12.40;;
41289;SDS011;36117;46.680;11.154;2022-10-16T01:38:47;25.73;;;12.63;;
41289;SDS011;36117;46.680;11.154;2022-10-16T01:41:19;32.95;;;13.88;;
41289;SDS011;36117;46.680;11.154;2022-10-16T01:43:53;31.25;;;14.90;;
41289;SDS011;36117;46.680;11.154;2022-10-16T01:46:38;27.92;;;13.25;;
41289;SDS011;36117;46.680;11.154;2022-10-16T01:49:06;22.38;;;13.07;;
41289;SDS011;36117;46.680;11.154;2022-10-16T01:51:34;25.23;;;13.30;;
41289;SDS011;36117;46.680;11.154;2022-10-16T01:54:02;22.25;;;12.75;;
41289;SDS011;36117;46.680;11.154;2022-10-16T01:56:32;27.25;;;11.32;;
41289;SDS011;36117;46.680;11.154;2022-10-16T01:59:01;24.58;;;11.23;;
41289;SDS011;36117;46.680;11.154;2022-10-16T02:01:36;21.90;;;10.73;;
41289;SDS011;36117;46.680;11.154;2022-10-16T02:04:20;21.90;;;10.90;;
41289;SDS011;36117;46.680;11.154;2022-10-16T02:06:54;23.48;;;10.40;;
41289;SDS011;36117;46.680;11.154;2022-10-16T02:09:20;21.73;;;10.00;;
41289;SDS011;36117;46.680;11.154;2022-10-16T02:11:46;24.20;;;10.60;;
41289;SDS011;36117;46.680;11.154;2022-10-16T02:14:14;22.65;;;11.80;;
41289;SDS011;36117;46.680;11.154;2022-10-16T02:16:41;21.33;;;11.48;;
41289;SDS011;36117;46.680;11.154;2022-10-16T02:19:11;21.00;;;9.57;;
41289;SDS011;36117;46.680;11.154;2022-10-16T02:21:41;24.02;;;11.70;;
41289;SDS011;36117;46.680;11.154;2022-10-16T02:27:14;25.63;;;12.80;;
41289;SDS011;36117;46.680;11.154;2022-10-16T02:30:00;21.90;;;11.75;;
41289;SDS011;36117;46.680;11.154;2022-10-16T02:32:37;22.08;;;11.23;;
41289;SDS011;36117;46.680;11.154;2022-10-16T02:35:08;25.85;;;11.45;;
41289;SDS011;36117;46.680;11.154;2022-10-16T02:37:37;25.42;;;11.88;;
41289;SDS011;36117;46.680;11.154;2022-10-16T02:40:05;20.45;;;10.80;;
41289;SDS011;36117;46.680;11.154;2022-10-16T02:42:33;23.88;;;12.30;;
41289;SDS011;36117;46.680;11.154;2022-10-16T02:45:00;21.23;;;11.85;;
41289;SDS011;36117;46.680;11.154;2022-10-16T02:47:26;25.38;;;12.85;;
41289;SDS011;36117;46.680;11.154;2022-10-16T02:49:52;26.08;;;13.40;;
41289;SDS011;36117;46.680;11.154;2022-10-16T02:52:18;19.38;;;11.48;;
41289;SDS011;36117;46.680;11.154;2022-10-16T02:54:44;29.67;;;12.27;;
41289;SDS011;36117;46.680;11.154;2022-10-16T02:57:11;21.73;;;10.57;;
41289;SDS011;36117;46.680;11.154;2022-10-16T02:59:37;16.58;;;9.43;;
41289;SDS011;36117;46.680;11.154;2022-10-16T03:02:02;18.38;;;9.35;;
41289;SDS011;36117;46.680;11.154;2022-10-16T03:04:28;17.73;;;9.32;;
41289;SDS011;36117;46.680;11.154;2022-10-16T03:06:54;31.52;;;12.40;;
41289;SDS011;36117;46.680;11.154;2022-10-16T03:09:21;23.90;;;11.48;;
41289;SDS011;36117;46.680;11.154;2022-10-16T03:11:46;23.02;;;10.80;;
41289;SDS011;36117;46.680;11.154;2022-10-16T03:14:12;27.95;;;12.48;;
41289;SDS011;36117;46.680;11.154;2022-10-16T03:16:38;20.60;;;11.82;;
41289;SDS011;36117;46.680;11.154;2022-10-16T03:19:04;24.60;;;12.15;;
41289;SDS011;36117;46.680;11.154;2022-10-16T03:21:30;23.33;;;11.75;;
41289;SDS011;36117;46.680;11.154;2022-10-16T03:23:55;22.17;;;12.75;;
41289;SDS011;36117;46.680;11.154;2022-10-16T03:26:21;26.75;;;13.40;;
41289;SDS011;36117;46.680;11.154;2022-10-16T03:28:47;25.52;;;12.48;;
41289;SDS011;36117;46.680;11.154;2022-10-16T03:31:13;25.10;;;11.65;;
41289;SDS011;36117;46.680;11.154;2022-10-16T03:33:39;17.88;;;9.70;;
41289;SDS011;36117;46.680;11.154;2022-10-16T03:36:05;15.90;;;9.13;;
41289;SDS011;36117;46.680;11.154;2022-10-16T03:38:31;23.45;;;9.57;;
41289;SDS011;36117;46.680;11.154;2022-10-16T03:40:57;19.98;;;9.90;;
41289;SDS011;36117;46.680;11.154;2022-10-16T03:43:23;19.77;;;9.25;;
41289;SDS011;36117;46.680;11.154;2022-10-16T03:45:50;24.50;;;10.32;;
41289;SDS011;36117;46.680;11.154;2022-10-16T03:48:17;23.45;;;11.85;;
41289;SDS011;36117;46.680;11.154;2022-10-16T03:50:43;20.73;;;11.30;;
41289;SDS011;36117;46.680;11.154;2022-10-16T03:53:09;25.30;;;12.77;;
41289;SDS011;36117;46.680;11.154;2022-10-16T03:55:35;22.48;;;11.88;;
41289;SDS011;36117;46.680;11.154;2022-10-16T03:58:01;29.73;;;12.50;;
41289;SDS011;36117;46.680;11.154;2022-10-16T04:00:27;26.80;;;12.10;;
41289;SDS011;36117;46.680;11.154;2022-10-16T04:02:53;25.20;;;13.13;;
41289;SDS011;36117;46.680;11.154;2022-10-16T04:05:19;23.77;;;12.82;;
41289;SDS011;36117;46.680;11.154;2022-10-16T04:07:45;31.33;;;12.55;;
41289;SDS011;36117;46.680;11.154;2022-10-16T04:10:11;22.08;;;11.40;;
41289;SDS011;36117;46.680;11.154;2022-10-16T04:12:37;23.52;;;11.93;;
41289;SDS011;36117;46.680;11.154;2022-10-16T04:15:03;23.23;;;11.65;;
41289;SDS011;36117;46.680;11.154;2022-10-16T04:17:29;23.65;;;12.30;;
41289;SDS011;36117;46.680;11.154;2022-10-16T04:19:55;22.90;;;12.40;;
41289;SDS011;36117;46.680;11.154;2022-10-16T04:22:21;33.15;;;14.63;;
41289;SDS011;36117;46.680;11.154;2022-10-16T04:24:46;27.05;;;13.68;;
41289;SDS011;36117;46.680;11.154;2022-10-16T04:27:12;29.40;;;14.93;;
41289;SDS011;36117;46.680;11.154;2022-10-16T04:29:38;25.55;;;12.40;;
41289;SDS011;36117;46.680;11.154;2022-10-16T04:32:04;21.95;;;11.90;;
41289;SDS011;36117;46.680;11.154;2022-10-16T04:34:30;29.23;;;13.82;;
41289;SDS011;36117;46.680;11.154;2022-10-16T04:36:55;22.80;;;12.35;;
41289;SDS011;36117;46.680;11.154;2022-10-16T04:39:21;28.90;;;12.23;;
41289;SDS011;36117;46.680;11.154;2022-10-16T04:41:47;22.95;;;11.80;;
41289;SDS011;36117;46.680;11.154;2022-10-16T04:44:13;24.08;;;10.93;;
41289;SDS011;36117;46.680;11.154;2022-10-16T04:46:38;27.90;;;12.10;;
41289;SDS011;36117;46.680;11.154;2022-10-16T04:49:04;28.58;;;12.15;;
41289;SDS011;36117;46.680;11.154;2022-10-16T04:51:30;24.90;;;12.77;;
41289;SDS011;36117;46.680;11.154;2022-10-16T04:53:56;24.73;;;11.93;;
41289;SDS011;36117;46.680;11.154;2022-10-16T04:56:22;22.90;;;11.27;;
41289;SDS011;36117;46.680;11.154;2022-10-16T04:58:49;24.73;;;13.32;;
41289;SDS011;36117;46.680;11.154;2022-10-16T05:01:15;25.52;;;12.82;;
41289;SDS011;36117;46.680;11.154;2022-10-16T05:03:40;28.30;;;13.43;;
41289;SDS011;36117;46.680;11.154;2022-10-16T05:06:06;31.20;;;13.40;;
41289;SDS011;36117;46.680;11.154;2022-10-16T05:08:32;24.30;;;12.45;;
41289;SDS011;36117;46.680;11.154;2022-10-16T05:10:58;28.38;;;12.93;;
41289;SDS011;36117;46.680;11.154;2022-10-16T05:13:24;27.70;;;13.02;;
41289;SDS011;36117;46.680;11.154;2022-10-16T05:15:51;29.92;;;13.38;;
41289;SDS011;36117;46.680;11.154;2022-10-16T05:18:17;27.35;;;12.93;;
41289;SDS011;36117;46.680;11.154;2022-10-16T05:20:43;24.05;;;12.43;;
41289;SDS011;36117;46.680;11.154;2022-10-16T05:23:09;23.88;;;12.88;;
41289;SDS011;36117;46.680;11.154;2022-10-16T05:25:37;23.52;;;12.40;;
41289;SDS011;36117;46.680;11.154;2022-10-16T05:28:03;27.25;;;11.88;;
41289;SDS011;36117;46.680;11.154;2022-10-16T05:30:29;27.38;;;13.82;;
41289;SDS011;36117;46.680;11.154;2022-10-16T05:32:55;32.38;;;12.77;;
41289;SDS011;36117;46.680;11.154;2022-10-16T05:35:21;26.52;;;12.77;;
41289;SDS011;36117;46.680;11.154;2022-10-16T05:37:47;26.77;;;13.60;;
41289;SDS011;36117;46.680;11.154;2022-10-16T05:40:13;28.40;;;14.60;;
41289;SDS011;36117;46.680;11.154;2022-10-16T05:42:40;32.05;;;13.82;;
41289;SDS011;36117;46.680;11.154;2022-10-16T05:45:06;24.25;;;12.68;;
41289;SDS011;36117;46.680;11.154;2022-10-16T05:47:34;26.85;;;13.18;;
41289;SDS011;36117;46.680;11.154;2022-10-16T05:50:00;23.98;;;12.07;;
41289;SDS011;36117;46.680;11.154;2022-10-16T05:52:26;26.13;;;12.75;;
41289;SDS011;36117;46.680;11.154;2022-10-16T05:54:53;27.00;;;11.23;;
41289;SDS011;36117;46.680;11.154;2022-10-16T05:57:18;25.70;;;12.73;;
41289;SDS011;36117;46.680;11.154;2022-10-16T05:59:44;25.05;;;12.20;;
41289;SDS011;36117;46.680;11.154;2022-10-16T06:02:14;30.80;;;12.00;;
41289;SDS011;36117;46.680;11.154;2022-10-16T06:04:40;25.10;;;12.57;;
41289;SDS011;36117;46.680;11.154;2022-10-16T06:07:06;20.60;;;11.15;;
41289;SDS011;36117;46.680;11.154;2022-10-16T06:09:32;24.60;;;12.98;;
41289;SDS011;36117;46.680;11.154;2022-10-16T06:11:57;27.95;;;13.50;;
41289;SDS011;36117;46.680;11.154;2022-10-16T06:14:23;27.33;;;12.27;;
41289;SDS011;36117;46.680;11.154;2022-10-16T06:16:49;36.22;;;14.00;;
41289;SDS011;36117;46.680;11.154;2022-10-16T06:19:15;25.95;;;12.57;;
41289;SDS011;36117;46.680;11.154;2022-10-16T06:21:42;32.55;;;12.48;;
41289;SDS011;36117;46.680;11.154;2022-10-16T06:24:09;26.27;;;12.65;;
41289;SDS011;36117;46.680;11.154;2022-10-16T06:26:35;26.17;;;13.55;;
41289;SDS011;36117;46.680;11.154;2022-10-16T06:29:02;26.48;;;12.25;;
41289;SDS011;36117;46.680;11.154;2022-10-16T06:31:28;27.60;;;13.32;;
41289;SDS011;36117;46.680;11.154;2022-10-16T06:33:56;23.27;;;12.30;;
41289;SDS011;36117;46.680;11.154;2022-10-16T06:36:22;27.13;;;13.18;;
41289;SDS011;36117;46.680;11.154;2022-10-16T06:38:49;34.47;;;14.43;;
41289;SDS011;36117;46.680;11.154;2022-10-16T06:41:18;25.13;;;14.13;;
41289;SDS011;36117;46.680;11.154;2022-10-16T06:43:45;25.40;;;12.95;;
41289;SDS011;36117;46.680;11.154;2022-10-16T06:46:12;24.40;;;12.73;;
41289;SDS011;36117;46.680;11.154;2022-10-16T06:48:40;25.92;;;14.00;;
41289;SDS011;36117;46.680;11.154;2022-10-16T06:53:33;32.13;;;13.90;;
41289;SDS011;36117;46.680;11.154;2022-10-16T06:56:09;23.17;;;12.23;;
41289;SDS011;36117;46.680;11.154;2022-10-16T06:58:40;24.23;;;12.70;;
41289;SDS011;36117;46.680;11.154;2022-10-16T07:01:07;22.42;;;11.98;;
41289;SDS011;36117;46.680;11.154;2022-10-16T07:03:35;26.38;;;11.88;;
41289;SDS011;36117;46.680;11.154;2022-10-16T07:06:03;23.85;;;12.68;;
41289;SDS011;36117;46.680;11.154;2022-10-16T07:08:34;22.92;;;13.27;;
41289;SDS011;36117;46.680;11.154;2022-10-16T07:11:01;24.90;;;12.95;;
41289;SDS011;36117;46.680;11.154;2022-10-16T07:13:29;33.78;;;14.30;;
41289;SDS011;36117;46.680;11.154;2022-10-16T07:15:57;26.83;;;13.25;;
41289;SDS011;36117;46.680;11.154;2022-10-16T07:18:28;26.90;;;13.68;;
41289;SDS011;36117;46.680;11.154;2022-10-16T07:21:02;27.25;;;13.35;;
41289;SDS011;36117;46.680;11.154;2022-10-16T07:23:29;27.90;;;12.23;;
41289;SDS011;36117;46.680;11.154;2022-10-16T07:25:54;32.90;;;13.35;;
41289;SDS011;36117;46.680;11.154;2022-10-16T07:28:20;33.28;;;13.93;;
41289;SDS011;36117;46.680;11.154;2022-10-16T07:30:47;23.42;;;11.73;;
41289;SDS011;36117;46.680;11.154;2022-10-16T07:33:13;23.83;;;12.30;;
41289;SDS011;36117;46.680;11.154;2022-10-16T07:35:47;22.98;;;12.85;;
41289;SDS011;36117;46.680;11.154;2022-10-16T07:38:15;24.15;;;12.65;;
41289;SDS011;36117;46.680;11.154;2022-10-16T07:40:41;23.80;;;12.25;;
41289;SDS011;36117;46.680;11.154;2022-10-16T07:43:06;28.10;;;12.48;;
41289;SDS011;36117;46.680;11.154;2022-10-16T07:45:32;25.48;;;11.82;;
41289;SDS011;36117;46.680;11.154;2022-10-16T07:47:58;28.25;;;13.25;;
41289;SDS011;36117;46.680;11.154;2022-10-16T07:50:24;26.83;;;13.35;;
41289;SDS011;36117;46.680;11.154;2022-10-16T07:52:50;26.67;;;12.55;;
41289;SDS011;36117;46.680;11.154;2022-10-16T07:55:16;24.48;;;12.10;;
41289;SDS011;36117;46.680;11.154;2022-10-16T07:57:41;25.50;;;13.10;;
41289;SDS011;36117;46.680;11.154;2022-10-16T08:00:07;25.88;;;12.63;;
41289;SDS011;36117;46.680;11.154;2022-10-16T08:02:38;22.73;;;12.48;;
41289;SDS011;36117;46.680;11.154;2022-10-16T08:05:05;22.50;;;12.63;;
41289;SDS011;36117;46.680;11.154;2022-10-16T08:07:32;22.83;;;12.80;;
41289;SDS011;36117;46.680;11.154;2022-10-16T08:09:58;26.60;;;13.60;;
41289;SDS011;36117;46.680;11.154;2022-10-16T08:12:24;28.80;;;12.00;;
41289;SDS011;36117;46.680;11.154;2022-10-16T08:14:50;20.83;;;11.40;;
41289;SDS011;36117;46.680;11.154;2022-10-16T08:17:16;24.27;;;12.75;;
41289;SDS011;36117;46.680;11.154;2022-10-16T08:19:45;21.48;;;12.50;;
41289;SDS011;36117;46.680;11.154;2022-10-16T08:22:12;28.25;;;12.35;;
41289;SDS011;36117;46.680;11.154;2022-10-16T08:24:39;21.88;;;12.05;;
41289;SDS011;36117;46.680;11.154;2022-10-16T08:27:06;25.50;;;12.82;;
41289;SDS011;36117;46.680;11.154;2022-10-16T08:29:34;18.73;;;11.55;;
41289;SDS011;36117;46.680;11.154;2022-10-16T08:31:59;22.83;;;11.70;;
41289;SDS011;36117;46.680;11.154;2022-10-16T08:34:25;21.05;;;11.80;;
41289;SDS011;36117;46.680;11.154;2022-10-16T08:36:52;20.70;;;11.57;;
41289;SDS011;36117;46.680;11.154;2022-10-16T08:39:19;20.02;;;11.38;;
41289;SDS011;36117;46.680;11.154;2022-10-16T08:44:31;22.92;;;11.57;;
41289;SDS011;36117;46.680;11.154;2022-10-16T08:47:10;22.48;;;12.63;;
41289;SDS011;36117;46.680;11.154;2022-10-16T08:50:00;22.95;;;12.02;;
41289;SDS011;36117;46.680;11.154;2022-10-16T08:52:35;20.50;;;11.88;;
41289;SDS011;36117;46.680;11.154;2022-10-16T08:55:05;18.30;;;10.55;;
41289;SDS011;36117;46.680;11.154;2022-10-16T08:57:31;21.02;;;11.18;;
41289;SDS011;36117;46.680;11.154;2022-10-16T08:59:59;18.42;;;11.02;;
41289;SDS011;36117;46.680;11.154;2022-10-16T09:02:37;25.33;;;12.93;;
41289;SDS011;36117;46.680;11.154;2022-10-16T09:05:16;22.15;;;12.23;;
41289;SDS011;36117;46.680;11.154;2022-10-16T09:08:13;20.55;;;12.07;;
41289;SDS011;36117;46.680;11.154;2022-10-16T09:11:13;25.13;;;11.93;;
41289;SDS011;36117;46.680;11.154;2022-10-16T09:14:15;23.48;;;13.27;;
41289;SDS011;36117;46.680;11.154;2022-10-16T09:17:07;25.85;;;13.90;;
41289;SDS011;36117;46.680;11.154;2022-10-16T09:19:38;28.40;;;13.63;;
41289;SDS011;36117;46.680;11.154;2022-10-16T09:22:11;21.70;;;12.77;;
41289;SDS011;36117;46.680;11.154;2022-10-16T09:24:40;35.13;;;15.13;;
41289;SDS011;36117;46.680;11.154;2022-10-16T09:27:12;29.20;;;12.82;;
41289;SDS011;36117;46.680;11.154;2022-10-16T09:29:39;26.70;;;13.43;;
41289;SDS011;36117;46.680;11.154;2022-10-16T09:32:12;21.75;;;11.90;;
41289;SDS011;36117;46.680;11.154;2022-10-16T09:34:43;31.92;;;13.35;;
41289;SDS011;36117;46.680;11.154;2022-10-16T09:37:14;24.10;;;13.05;;
41289;SDS011;36117;46.680;11.154;2022-10-16T09:39:47;21.98;;;12.00;;
41289;SDS011;36117;46.680;11.154;2022-10-16T09:42:18;20.83;;;11.95;;
41289;SDS011;36117;46.680;11.154;2022-10-16T09:44:49;19.77;;;11.02;;
41289;SDS011;36117;46.680;11.154;2022-10-16T09:47:18;16.13;;;9.77;;
41289;SDS011;36117;46.680;11.154;2022-10-16T09:52:20;19.27;;;10.55;;
41289;SDS011;36117;46.680;11.154;2022-10-16T09:54:54;15.10;;;9.52;;
41289;SDS011;36117;46.680;11.154;2022-10-16T09:57:21;16.75;;;9.45;;
41289;SDS011;36117;46.680;11.154;2022-10-16T09:59:53;17.13;;;9.73;;
41289;SDS011;36117;46.680;11.154;2022-10-16T10:04:56;17.92;;;9.10;;
41289;SDS011;36117;46.680;11.154;2022-10-16T10:07:35;16.92;;;9.10;;
41289;SDS011;36117;46.680;11.154;2022-10-16T10:10:18;16.73;;;9.55;;
41289;SDS011;36117;46.680;11.154;2022-10-16T10:12:47;14.73;;;9.68;;
41289;SDS011;36117;46.680;11.154;2022-10-16T10:15:13;14.40;;;8.73;;
41289;SDS011;36117;46.680;11.154;2022-10-16T10:17:49;20.25;;;10.45;;
41289;SDS011;36117;46.680;11.154;2022-10-16T10:20:23;23.45;;;11.18;;
41289;SDS011;36117;46.680;11.154;2022-10-16T10:22:53;17.10;;;10.20;;
41289;SDS011;36117;46.680;11.154;2022-10-16T10:28:05;16.65;;;9.90;;
41289;SDS011;36117;46.680;11.154;2022-10-16T10:39:28;13.68;;;9.00;;
41289;SDS011;36117;46.680;11.154;2022-10-16T10:47:32;12.40;;;7.78;;
41289;SDS011;36117;46.680;11.154;2022-10-16T10:53:18;14.23;;;7.00;;
41289;SDS011;36117;46.680;11.154;2022-10-16T11:00:42;11.05;;;7.70;;
41289;SDS011;36117;46.680;11.154;2022-10-16T11:09:02;22.33;;;11.00;;
41289;SDS011;36117;46.680;11.154;2022-10-16T11:14:21;11.25;;;7.68;;
41289;SDS011;36117;46.680;11.154;2022-10-16T11:17:19;13.45;;;8.15;;
41289;SDS011;36117;46.680;11.154;2022-10-16T11:19:54;16.38;;;8.82;;
41289;SDS011;36117;46.680;11.154;2022-10-16T11:23:26;12.82;;;8.30;;
41289;SDS011;36117;46.680;11.154;2022-10-16T11:25:43;11.88;;;8.05;;
41289;SDS011;36117;46.680;11.154;2022-10-16T11:28:16;11.93;;;7.00;;
41289;SDS011;36117;46.680;11.154;2022-10-16T11:41:41;12.10;;;7.32;;
41289;SDS011;36117;46.680;11.154;2022-10-16T11:44:16;14.65;;;7.38;;
41289;SDS011;36117;46.680;11.154;2022-10-16T11:49:53;18.50;;;8.30;;
41289;SDS011;36117;46.680;11.154;2022-10-16T11:52:33;11.32;;;6.57;;
41289;SDS011;36117;46.680;11.154;2022-10-16T11:57:33;12.35;;;6.20;;
41289;SDS011;36117;46.680;11.154;2022-10-16T12:00:47;9.88;;;5.78;;
41289;SDS011;36117;46.680;11.154;2022-10-16T12:05:29;14.15;;;7.68;;
41289;SDS011;36117;46.680;11.154;2022-10-16T12:08:18;13.00;;;6.43;;
41289;SDS011;36117;46.680;11.154;2022-10-16T12:10:45;9.77;;;5.80;;
41289;SDS011;36117;46.680;11.154;2022-10-16T12:16:03;13.10;;;6.53;;
41289;SDS011;36117;46.680;11.154;2022-10-16T12:18:31;15.38;;;6.50;;
41289;SDS011;36117;46.680;11.154;2022-10-16T12:20:57;9.18;;;5.40;;
41289;SDS011;36117;46.680;11.154;2022-10-16T12:23:29;8.50;;;4.60;;
41289;SDS011;36117;46.680;11.154;2022-10-16T12:25:56;12.82;;;5.32;;
41289;SDS011;36117;46.680;11.154;2022-10-16T12:28:27;15.80;;;6.55;;
41289;SDS011;36117;46.680;11.154;2022-10-16T12:31:07;9.05;;;5.50;;
41289;SDS011;36117;46.680;11.154;2022-10-16T12:33:39;12.57;;;6.63;;
41289;SDS011;36117;46.680;11.154;2022-10-16T12:36:31;15.25;;;6.82;;
41289;SDS011;36117;46.680;11.154;2022-10-16T12:38:58;10.27;;;6.18;;
41289;SDS011;36117;46.680;11.154;2022-10-16T12:41:30;9.18;;;6.15;;
41289;SDS011;36117;46.680;11.154;2022-10-16T12:44:02;11.07;;;5.30;;
41289;SDS011;36117;46.680;11.154;2022-10-16T12:49:04;9.30;;;5.65;;
41289;SDS011;36117;46.680;11.154;2022-10-16T12:51:44;12.13;;;6.05;;
41289;SDS011;36117;46.680;11.154;2022-10-16T12:54:25;13.48;;;5.40;;
41289;SDS011;36117;46.680;11.154;2022-10-16T13:00:12;13.75;;;6.30;;
41289;SDS011;36117;46.680;11.154;2022-10-16T13:11:22;10.53;;;6.37;;
41289;SDS011;36117;46.680;11.154;2022-10-16T13:14:24;12.25;;;6.32;;
41289;SDS011;36117;46.680;11.154;2022-10-16T13:17:22;13.85;;;6.30;;
41289;SDS011;36117;46.680;11.154;2022-10-16T13:20:10;10.88;;;6.47;;
41289;SDS011;36117;46.680;11.154;2022-10-16T13:27:58;9.60;;;5.53;;
41289;SDS011;36117;46.680;11.154;2022-10-16T13:30:26;11.40;;;6.38;;
41289;SDS011;36117;46.680;11.154;2022-10-16T13:35:45;9.75;;;6.13;;
41289;SDS011;36117;46.680;11.154;2022-10-16T13:38:25;14.05;;;5.97;;
41289;SDS011;36117;46.680;11.154;2022-10-16T13:40:57;9.70;;;5.63;;
41289;SDS011;36117;46.680;11.154;2022-10-16T13:43:35;9.50;;;5.28;;
41289;SDS011;36117;46.680;11.154;2022-10-16T13:46:05;14.73;;;6.28;;
41289;SDS011;36117;46.680;11.154;2022-10-16T13:48:36;10.75;;;6.40;;
41289;SDS011;36117;46.680;11.154;2022-10-16T13:51:04;11.85;;;6.40;;
41289;SDS011;36117;46.680;11.154;2022-10-16T13:53:31;11.45;;;5.93;;
41289;SDS011;36117;46.680;11.154;2022-10-16T13:56:05;9.60;;;6.65;;
41289;SDS011;36117;46.680;11.154;2022-10-16T13:58:42;16.80;;;5.72;;
41289;SDS011;36117;46.680;11.154;2022-10-16T14:01:22;12.68;;;6.88;;
41289;SDS011;36117;46.680;11.154;2022-10-16T14:03:52;16.10;;;6.85;;
41289;SDS011;36117;46.680;11.154;2022-10-16T14:06:19;13.82;;;6.72;;
41289;SDS011;36117;46.680;11.154;2022-10-16T14:08:51;15.50;;;5.95;;
41289;SDS011;36117;46.680;11.154;2022-10-16T14:11:33;14.98;;;7.25;;
41289;SDS011;36117;46.680;11.154;2022-10-16T14:14:24;10.95;;;6.72;;
41289;SDS011;36117;46.680;11.154;2022-10-16T14:16:52;12.23;;;7.10;;
41289;SDS011;36117;46.680;11.154;2022-10-16T14:21:47;12.75;;;6.80;;
41289;SDS011;36117;46.680;11.154;2022-10-16T14:24:22;12.68;;;7.63;;
41289;SDS011;36117;46.680;11.154;2022-10-16T14:26:56;10.50;;;7.03;;
41289;SDS011;36117;46.680;11.154;2022-10-16T14:29:23;14.80;;;8.05;;
41289;SDS011;36117;46.680;11.154;2022-10-16T14:31:54;26.70;;;7.75;;
41289;SDS011;36117;46.680;11.154;2022-10-16T14:34:25;17.70;;;8.23;;
41289;SDS011;36117;46.680;11.154;2022-10-16T14:36:53;21.75;;;7.63;;
41289;SDS011;36117;46.680;11.154;2022-10-16T14:39:20;12.20;;;7.32;;
41289;SDS011;36117;46.680;11.154;2022-10-16T14:41:48;12.32;;;7.82;;
41289;SDS011;36117;46.680;11.154;2022-10-16T14:44:17;12.32;;;7.70;;
41289;SDS011;36117;46.680;11.154;2022-10-16T14:46:44;14.05;;;8.30;;
41289;SDS011;36117;46.680;11.154;2022-10-16T14:51:37;15.52;;;8.38;;
41289;SDS011;36117;46.680;11.154;2022-10-16T14:54:07;14.55;;;8.02;;
41289;SDS011;36117;46.680;11.154;2022-10-16T14:56:48;12.27;;;7.15;;
41289;SDS011;36117;46.680;11.154;2022-10-16T14:59:57;13.53;;;7.97;;
41289;SDS011;36117;46.680;11.154;2022-10-16T15:02:18;15.07;;;8.77;;
41289;SDS011;36117;46.680;11.154;2022-10-16T15:04:44;15.75;;;9.05;;
41289;SDS011;36117;46.680;11.154;2022-10-16T15:07:10;12.75;;;7.82;;
41289;SDS011;36117;46.680;11.154;2022-10-16T15:09:36;18.83;;;10.85;;
41289;SDS011;36117;46.680;11.154;2022-10-16T15:12:02;19.63;;;11.30;;
41289;SDS011;36117;46.680;11.154;2022-10-16T15:14:28;20.50;;;9.05;;
41289;SDS011;36117;46.680;11.154;2022-10-16T15:16:54;17.45;;;9.57;;
41289;SDS011;36117;46.680;11.154;2022-10-16T15:19:20;16.10;;;9.13;;
41289;SDS011;36117;46.680;11.154;2022-10-16T15:22:04;16.35;;;8.43;;
41289;SDS011;36117;46.680;11.154;2022-10-16T15:24:30;14.70;;;8.65;;
41289;SDS011;36117;46.680;11.154;2022-10-16T15:26:56;17.20;;;8.20;;
41289;SDS011;36117;46.680;11.154;2022-10-16T15:29:22;18.10;;;8.98;;
41289;SDS011;36117;46.680;11.154;2022-10-16T15:31:48;20.77;;;10.30;;
41289;SDS011;36117;46.680;11.154;2022-10-16T15:34:13;16.20;;;9.10;;
41289;SDS011;36117;46.680;11.154;2022-10-16T15:36:40;17.77;;;9.45;;
41289;SDS011;36117;46.680;11.154;2022-10-16T15:39:13;21.17;;;10.45;;
41289;SDS011;36117;46.680;11.154;2022-10-16T15:41:45;39.65;;;18.55;;
41289;SDS011;36117;46.680;11.154;2022-10-16T15:44:19;30.70;;;14.57;;
41289;SDS011;36117;46.680;11.154;2022-10-16T15:46:48;19.63;;;11.55;;
41289;SDS011;36117;46.680;11.154;2022-10-16T15:49:14;24.67;;;10.15;;
41289;SDS011;36117;46.680;11.154;2022-10-16T15:51:41;16.15;;;9.68;;
41289;SDS011;36117;46.680;11.154;2022-10-16T15:54:07;17.23;;;9.63;;
41289;SDS011;36117;46.680;11.154;2022-10-16T15:56:34;18.98;;;9.77;;
41289;SDS011;36117;46.680;11.154;2022-10-16T15:59:02;14.88;;;9.30;;
41289;SDS011;36117;46.680;11.154;2022-10-16T16:01:28;19.38;;;9.60;;
41289;SDS011;36117;46.680;11.154;2022-10-16T16:04:00;11.60;;;7.43;;
41289;SDS011;36117;46.680;11.154;2022-10-16T16:06:26;13.20;;;9.15;;
41289;SDS011;36117;46.680;11.154;2022-10-16T16:08:53;16.30;;;9.15;;
41289;SDS011;36117;46.680;11.154;2022-10-16T16:11:19;27.02;;;8.98;;
41289;SDS011;36117;46.680;11.154;2022-10-16T16:13:47;14.80;;;7.55;;
41289;SDS011;36117;46.680;11.154;2022-10-16T16:16:14;14.18;;;7.68;;